Time;durP1;ratioP1;P1;durP2;ratioP2;P2;SDS_P1;SDS_P2;PMS_P1;PMS_P2;Temp;Humidity;BMP_temperature;BMP_pressure;BME280_temperature;BME280_humidity;BME280_pressure;Samples;Min_cycle;Max_cycle;Signal;HPM_P1;HPM_P2
2022/02/12 00:20:13;;;;;;;27.88;17.20;;;;;;;0.80;100.00;101053.75;4980902;28;20248;-77
2022/02/12 00:22:40;;;;;;;29.98;19.02;;;;;;;0.85;100.00;101046.69;5079055;28;20189;-76
2022/02/12 00:25:08;;;;;;;22.50;15.70;;;;;;;0.82;100.00;101036.09;5074478;28;20193;-79
2022/02/12 00:27:35;;;;;;;21.75;14.77;;;;;;;0.88;100.00;101036.09;5082039;28;20316;-81
2022/02/12 00:30:02;;;;;;;26.25;16.42;;;;;;;0.83;100.00;101048.44;5082024;28;20181;-81
2022/02/12 00:32:28;;;;;;;29.73;16.75;;;;;;;0.73;100.00;101050.19;5082011;28;20538;-80
2022/02/12 00:34:55;;;;;;;24.13;14.75;;;;;;;0.61;100.00;101040.41;5083666;28;20664;-80
2022/02/12 00:37:24;;;;;;;28.58;15.38;;;;;;;0.41;100.00;101042.06;5082392;28;20541;-81
2022/02/12 00:39:51;;;;;;;21.67;15.40;;;;;;;0.37;100.00;101030.53;5089681;28;21686;-81
2022/02/12 00:42:18;;;;;;;27.02;15.85;;;;;;;0.24;100.00;101031.31;5078249;28;20203;-80
2022/02/12 00:44:45;;;;;;;32.53;16.13;;;;;;;0.24;100.00;101033.97;5077015;28;20207;-80
2022/02/12 00:47:11;;;;;;;25.45;15.07;;;;;;;0.47;100.00;101042.06;5075453;28;20213;-80
2022/02/12 00:49:38;;;;;;;29.10;15.40;;;;;;;0.40;100.00;101027.00;5078414;28;20288;-79
2022/02/12 00:52:05;;;;;;;25.55;16.05;;;;;;;0.30;100.00;101036.66;5081452;28;20223;-80
2022/02/12 00:54:33;;;;;;;27.88;15.50;;;;;;;0.45;100.00;101035.00;5074321;28;20274;-79
2022/02/12 00:57:00;;;;;;;28.70;15.57;;;;;;;0.33;100.00;101022.56;5084728;28;20193;-81
2022/02/12 00:59:27;;;;;;;24.35;15.63;;;;;;;0.07;100.00;101023.28;5082160;28;20291;-80
2022/02/12 01:01:54;;;;;;;29.30;15.75;;;;;;;0.10;100.00;101019.75;5077721;28;20194;-80
2022/02/12 01:04:20;;;;;;;27.95;16.60;;;;;;;-0.02;100.00;101020.56;5085089;28;20196;-79
2022/02/12 01:06:47;;;;;;;28.65;14.88;;;;;;;0.06;100.00;101016.19;5074910;28;20216;-80
2022/02/12 01:09:14;;;;;;;25.42;14.98;;;;;;;-0.01;100.00;101024.97;5078260;28;20191;-81
2022/02/12 01:11:42;;;;;;;25.02;15.38;;;;;;;-0.07;100.00;101016.97;5075869;28;20203;-80
2022/02/12 01:14:10;;;;;;;23.67;15.10;;;;;;;-0.12;100.00;101010.75;5068897;28;20184;-81
2022/02/12 01:16:36;;;;;;;29.52;16.23;;;;;;;-0.09;100.00;101010.75;5080534;28;20555;-80
2022/02/12 01:19:03;;;;;;;24.23;16.05;;;;;;;-0.19;100.00;101008.94;5090579;28;20223;-80
2022/02/12 01:21:30;;;;;;;26.02;15.20;;;;;;;-0.19;100.00;101007.16;5095110;28;20216;-81
2022/02/12 01:23:57;;;;;;;23.58;15.05;;;;;;;0.02;100.00;101010.84;5104446;28;20187;-80
2022/02/12 01:26:23;;;;;;;25.70;15.05;;;;;;;0.16;100.00;101011.84;5084773;28;20618;-81
2022/02/12 01:28:51;;;;;;;18.70;13.07;;;;;;;0.23;100.00;101004.81;5097146;28;20217;-80
2022/02/12 01:31:19;;;;;;;24.15;14.77;;;;;;;-0.10;100.00;100998.41;5082117;28;20203;-81
2022/02/12 01:33:46;;;;;;;22.45;14.00;;;;;;;-0.26;100.00;101011.50;5087029;28;20208;-80
2022/02/12 01:36:12;;;;;;;21.83;14.77;;;;;;;0.03;100.00;101004.69;5108511;28;20198;-80
2022/02/12 01:38:39;;;;;;;21.00;14.10;;;;;;;0.10;100.00;100991.50;5094798;28;20188;-80
2022/02/12 01:41:06;;;;;;;23.05;15.27;;;;;;;0.35;100.00;100987.22;5116130;27;20211;-80
2022/02/12 01:43:43;;;;;;;25.67;14.23;;;;;;;0.24;100.00;101003.94;5112780;28;20286;-81
2022/02/12 01:46:12;;;;;;;22.38;14.55;;;;;;;0.15;100.00;100997.69;5113299;28;20187;-80
2022/02/12 01:48:44;;;;;;;23.25;13.98;;;;;;;0.06;100.00;100994.13;5112770;28;20737;-81
2022/02/12 01:51:13;;;;;;;22.63;14.50;;;;;;;0.20;100.00;100981.84;5112097;28;20200;-81
2022/02/12 01:53:40;;;;;;;24.90;15.45;;;;;;;0.11;100.00;100977.38;5094044;28;20188;-81
2022/02/12 01:56:07;;;;;;;21.75;14.40;;;;;;;0.39;100.00;100982.84;5092724;28;20310;-81
2022/02/12 01:58:34;;;;;;;27.95;17.05;;;;;;;0.53;100.00;100961.72;5092731;28;20271;-80
2022/02/12 02:01:01;;;;;;;18.20;14.57;;;;;;;0.47;100.00;100975.81;5101143;28;20191;-79
2022/02/12 02:03:29;;;;;;;21.08;12.82;;;;;;;0.34;100.00;100976.63;5108472;28;20223;-80
2022/02/12 02:05:55;;;;;;;22.80;14.00;;;;;;;0.51;100.00;100971.41;5112328;28;20202;-81
2022/02/12 02:08:23;;;;;;;22.52;13.95;;;;;;;0.14;100.00;100968.56;5110887;28;20203;-81
2022/02/12 02:10:52;;;;;;;28.15;15.15;;;;;;;0.34;100.00;100969.56;5096158;28;20192;-81
2022/02/12 02:13:26;;;;;;;22.02;13.15;;;;;;;0.12;100.00;100963.25;5099426;28;20183;-81
2022/02/12 02:15:53;;;;;;;19.60;14.43;;;;;;;-0.04;100.00;100964.03;5101138;28;20621;-81
2022/02/12 02:18:20;;;;;;;20.92;14.48;;;;;;;-0.08;100.00;100960.47;5099208;28;20255;-81
2022/02/12 02:20:48;;;;;;;23.73;15.85;;;;;;;-0.16;100.00;100956.88;5104093;27;20247;-79
2022/02/12 02:23:17;;;;;;;24.13;14.15;;;;;;;-0.04;100.00;100948.16;5127081;27;20285;-82
2022/02/12 02:26:01;;;;;;;20.75;13.75;;;;;;;0.02;100.00;100950.81;5098230;28;20555;-81
2022/02/12 02:28:27;;;;;;;17.83;13.80;;;;;;;-0.12;100.00;100942.78;5074875;28;20188;-82
2022/02/12 02:30:54;;;;;;;34.47;14.50;;;;;;;-0.30;100.00;100940.88;5082988;28;20202;-81
2022/02/12 02:33:20;;;;;;;23.33;13.73;;;;;;;-0.40;100.00;100939.06;5071339;28;20188;-81
2022/02/12 02:35:47;;;;;;;21.92;13.80;;;;;;;-0.43;100.00;100934.63;5077407;28;20193;-81
2022/02/12 02:38:17;;;;;;;22.73;13.30;;;;;;;-0.18;100.00;100937.47;5072496;28;20695;-81
2022/02/12 02:40:45;;;;;;;23.10;13.55;;;;;;;-0.18;100.00;100940.13;5065659;28;20701;-81
2022/02/12 02:43:13;;;;;;;22.30;13.68;;;;;;;0.15;100.00;100941.19;5060922;28;20242;-81
2022/02/12 02:45:40;;;;;;;21.20;13.32;;;;;;;0.19;100.00;100927.09;5068643;28;20299;-81
2022/02/12 02:48:08;;;;;;;23.77;14.50;;;;;;;0.08;100.00;100934.97;5072913;28;20260;-80
2022/02/12 02:56:05;;;;;;;19.52;14.32;;;;;;;0.20;100.00;100924.47;5078960;28;20192;-80
2022/02/12 02:58:35;;;;;;;23.45;13.95;;;;;;;-0.09;100.00;100921.66;5081424;28;20188;-81
2022/02/12 03:01:04;;;;;;;23.90;13.55;;;;;;;-0.04;100.00;100922.56;5083481;28;20203;-81
2022/02/12 03:03:31;;;;;;;22.30;13.00;;;;;;;-0.09;100.00;100931.31;5068470;28;20216;-79
2022/02/12 03:05:58;;;;;;;19.65;13.30;;;;;;;-0.13;100.00;100922.50;5083162;28;20226;-81
2022/02/12 03:08:25;;;;;;;16.15;12.70;;;;;;;-0.40;100.00;100914.38;5066567;28;20614;-81
2022/02/12 03:10:51;;;;;;;24.85;14.25;;;;;;;-0.29;100.00;100913.56;5079789;28;20652;-81
2022/02/12 03:13:18;;;;;;;18.52;13.30;;;;;;;-0.22;100.00;100912.72;5075761;28;20192;-81
2022/02/12 03:15:47;;;;;;;20.23;12.43;;;;;;;-0.08;100.00;100914.56;5068474;28;20188;-81
2022/02/12 03:18:13;;;;;;;18.60;13.35;;;;;;;-0.31;100.00;100909.13;5065131;28;20838;-81
2022/02/12 03:20:40;;;;;;;21.52;13.30;;;;;;;-0.58;100.00;100904.53;5066575;28;20272;-81
2022/02/12 03:23:07;;;;;;;19.23;12.27;;;;;;;-0.58;100.00;100904.53;5070959;28;20281;-79
2022/02/12 03:25:34;;;;;;;21.55;13.75;;;;;;;-0.38;100.00;100902.91;5072534;28;20315;-79
2022/02/12 03:28:03;;;;;;;20.35;12.80;;;;;;;-0.27;100.00;100895.94;5061833;28;20232;-81
2022/02/12 03:30:31;;;;;;;20.25;12.63;;;;;;;-0.32;100.00;100896.75;5062697;28;20559;-80
2022/02/12 03:32:59;;;;;;;17.50;12.48;;;;;;;-0.48;100.00;100890.47;5071527;28;20288;-80
2022/02/12 03:35:27;;;;;;;22.85;12.00;;;;;;;-0.49;100.00;100894.00;5065032;28;20268;-80
2022/02/12 03:37:54;;;;;;;20.98;12.70;;;;;;;-0.28;100.00;100893.25;5056711;28;20206;-80
2022/02/12 03:40:21;;;;;;;20.65;12.45;;;;;;;-0.14;100.00;100896.88;5066509;28;20653;-80
2022/02/12 03:42:48;;;;;;;16.80;12.07;;;;;;;-0.17;100.00;100893.34;5057039;28;20288;-80
2022/02/12 03:45:16;;;;;;;17.17;12.55;;;;;;;-0.05;100.00;100881.03;5051025;28;20206;-80
2022/02/12 03:47:42;;;;;;;17.73;11.50;;;;;;;-0.10;100.00;100881.91;5053059;28;20190;-80
2022/02/12 03:50:11;;;;;;;17.52;10.55;;;;;;;-0.29;100.00;100884.44;5062503;28;20276;-80
2022/02/12 03:52:38;;;;;;;18.80;11.43;;;;;;;-0.18;100.00;100883.59;5062394;28;20197;-80
2022/02/12 03:55:06;;;;;;;21.45;11.65;;;;;;;0.01;100.00;100874.91;5061353;28;20273;-79
2022/02/12 03:57:32;;;;;;;19.50;11.32;;;;;;;-0.10;100.00;100873.97;5067149;28;20262;-80
2022/02/12 03:59:59;;;;;;;16.27;11.57;;;;;;;-0.26;100.00;100868.56;5054923;28;20375;-80
2022/02/12 04:02:27;;;;;;;16.10;10.55;;;;;;;-0.16;100.00;100865.97;5068407;28;20207;-80
2022/02/12 04:04:53;;;;;;;16.92;11.40;;;;;;;0.02;100.00;100859.91;5059393;28;21525;-80
2022/02/12 04:07:21;;;;;;;13.90;10.43;;;;;;;0.05;100.00;100855.50;5054480;28;20197;-80
2022/02/12 04:09:48;;;;;;;16.17;10.63;;;;;;;-0.18;100.00;100858.03;5058180;28;20288;-80
2022/02/12 04:12:14;;;;;;;20.35;10.48;;;;;;;-0.06;100.00;100854.56;5060332;28;20552;-80
2022/02/12 04:14:41;;;;;;;15.93;10.45;;;;;;;0.02;100.00;100860.78;5056265;28;20284;-80
2022/02/12 04:17:08;;;;;;;23.83;11.02;;;;;;;0.13;100.00;100853.75;5057128;28;20272;-80
2022/02/12 04:19:34;;;;;;;16.02;10.65;;;;;;;-0.01;100.00;100847.53;5056238;28;20220;-80
2022/02/12 04:22:01;;;;;;;18.85;9.90;;;;;;;0.11;100.00;100841.41;5060853;28;20185;-80
2022/02/12 04:24:29;;;;;;;16.38;10.93;;;;;;;-0.17;100.00;100843.03;5056883;28;20236;-81
2022/02/12 04:26:56;;;;;;;17.38;9.98;;;;;;;-0.17;100.00;100837.75;5056729;28;20189;-81
2022/02/12 04:29:22;;;;;;;22.38;10.68;;;;;;;-0.32;100.00;100833.22;5064789;28;20191;-81
2022/02/12 04:31:49;;;;;;;19.52;10.25;;;;;;;-0.32;100.00;100822.66;5057460;28;20211;-81
2022/02/12 04:34:16;;;;;;;17.23;10.95;;;;;;;-0.21;100.00;100832.41;5061689;28;20185;-81
2022/02/12 04:36:42;;;;;;;19.05;13.70;;;;;;;-0.06;100.00;100828.97;5063987;28;20709;-81
2022/02/12 04:39:09;;;;;;;24.67;19.08;;;;;;;-0.17;100.00;100825.38;5067071;28;20194;-81
2022/02/12 04:41:37;;;;;;;25.17;18.73;;;;;;;-0.11;100.00;100821.91;5056436;28;20556;-81
2022/02/12 04:44:04;;;;;;;24.38;17.05;;;;;;;-0.08;100.00;100827.19;5053576;28;20194;-81
2022/02/12 04:46:30;;;;;;;22.55;15.63;;;;;;;-0.22;100.00;100820.06;5061879;28;20204;-81
2022/02/12 04:48:57;;;;;;;27.73;19.15;;;;;;;-0.05;100.00;100822.78;5059058;28;20193;-81
2022/02/12 04:51:24;;;;;;;33.35;21.75;;;;;;;0.08;100.00;100820.22;5060725;28;20267;-81
2022/02/12 04:53:51;;;;;;;34.17;24.10;;;;;;;0.09;100.00;100814.94;5063492;28;20198;-81
2022/02/12 04:56:19;;;;;;;35.78;22.50;;;;;;;0.13;100.00;100818.44;5061668;28;20243;-81
2022/02/12 04:58:47;;;;;;;31.15;24.25;;;;;;;0.07;100.00;100811.38;5060648;28;20189;-79
2022/02/12 05:01:20;;;;;;;27.80;21.95;;;;;;;-0.02;100.00;100811.34;5057731;28;20271;-79
2022/02/12 05:03:49;;;;;;;32.70;21.17;;;;;;;-0.30;100.00;100813.84;5053552;28;20196;-79
2022/02/12 05:06:16;;;;;;;24.48;17.27;;;;;;;-0.26;100.00;100798.88;5055234;28;20216;-80
2022/02/12 05:08:43;;;;;;;27.17;15.25;;;;;;;-0.57;100.00;100803.09;5064026;28;20833;-80
2022/02/12 05:11:10;;;;;;;22.73;15.02;;;;;;;-0.58;100.00;100806.63;5056823;28;20196;-80
2022/02/12 05:13:37;;;;;;;26.48;18.80;;;;;;;-0.67;100.00;100815.38;5061379;28;20293;-80
2022/02/12 05:16:06;;;;;;;27.65;17.45;;;;;;;-0.46;100.00;100804.03;5061110;28;20194;-80
2022/02/12 05:18:33;;;;;;;23.50;12.68;;;;;;;-0.46;100.00;100798.75;5063174;28;20690;-80
2022/02/12 05:21:00;;;;;;;16.95;11.02;;;;;;;-0.44;100.00;100792.59;5059961;28;20541;-80
2022/02/12 05:23:26;;;;;;;20.92;10.80;;;;;;;-0.59;100.00;100797.78;5060072;28;20192;-80
2022/02/12 05:25:53;;;;;;;15.82;10.68;;;;;;;-0.34;100.00;100785.59;5052227;28;20235;-80
2022/02/12 05:28:20;;;;;;;15.52;10.30;;;;;;;-0.64;100.00;100791.56;5052740;28;20207;-80
2022/02/12 05:30:46;;;;;;;20.02;10.18;;;;;;;-0.40;100.00;100788.22;5059096;28;20239;-80
2022/02/12 05:33:14;;;;;;;23.85;10.98;;;;;;;-0.86;100.00;100786.16;5054860;28;20565;-79
2022/02/12 05:35:41;;;;;;;19.25;10.05;;;;;;;-0.77;100.00;100785.34;5056433;28;20205;-80
2022/02/12 05:38:08;;;;;;;18.17;9.88;;;;;;;-0.82;100.00;100776.47;5056177;28;20548;-80
2022/02/12 05:40:35;;;;;;;15.77;9.35;;;;;;;-0.88;100.00;100772.03;5060249;28;20192;-80
2022/02/12 05:43:02;;;;;;;18.92;10.38;;;;;;;-0.86;100.00;100767.66;5061748;28;20697;-80
2022/02/12 05:45:29;;;;;;;18.65;10.30;;;;;;;-0.96;100.00;100760.50;5057321;28;20232;-80
2022/02/12 05:47:55;;;;;;;16.45;9.40;;;;;;;-0.94;100.00;100755.25;5060513;28;21071;-81
2022/02/12 05:50:27;;;;;;;18.83;11.05;;;;;;;-1.01;100.00;100750.78;5066217;28;20947;-80
2022/02/12 05:52:53;;;;;;;14.85;9.60;;;;;;;-0.95;100.00;100741.13;5052069;28;20200;-80
2022/02/12 05:55:20;;;;;;;19.15;10.10;;;;;;;-0.90;100.00;100751.75;5062460;28;20191;-80
2022/02/12 05:57:47;;;;;;;18.25;8.43;;;;;;;-0.86;100.00;100746.50;5057729;28;20237;-81
2022/02/12 06:00:15;;;;;;;18.63;8.57;;;;;;;-0.94;100.00;100726.16;5059955;28;20197;-80
2022/02/12 06:02:42;;;;;;;16.95;8.57;;;;;;;-0.76;100.00;100731.56;5045119;28;20196;-81
2022/02/12 06:05:09;;;;;;;18.13;8.20;;;;;;;-0.70;100.00;100725.41;5051262;28;20201;-81
2022/02/12 06:07:37;;;;;;;17.13;9.00;;;;;;;-0.49;100.00;100737.88;5055333;28;20535;-80
2022/02/12 06:10:04;;;;;;;15.27;8.02;;;;;;;-0.32;100.00;100727.38;5055805;28;20188;-80
2022/02/12 06:12:31;;;;;;;11.13;8.13;;;;;;;-0.18;100.00;100736.25;5064040;28;20702;-80
2022/02/12 06:14:58;;;;;;;13.50;8.57;;;;;;;-0.14;100.00;100727.44;5052228;28;20663;-80
2022/02/12 06:17:26;;;;;;;16.67;8.82;;;;;;;-0.16;100.00;100723.00;5062727;28;20185;-80
2022/02/12 06:19:53;;;;;;;14.27;7.93;;;;;;;-0.24;100.00;100728.28;5057433;28;20280;-80
2022/02/12 06:22:19;;;;;;;13.70;6.97;;;;;;;-0.14;100.00;100727.44;5057768;28;20189;-80
2022/02/12 06:24:47;;;;;;;15.52;7.20;;;;;;;-0.02;100.00;100731.91;5057747;28;20249;-81
2022/02/12 06:27:14;;;;;;;9.45;6.50;;;;;;;-0.23;100.00;100728.31;5066576;28;20291;-81
2022/02/12 06:29:40;;;;;;;13.18;6.80;;;;;;;-0.31;100.00;100724.72;5065343;28;20628;-81
2022/02/12 06:32:07;;;;;;;10.88;6.55;;;;;;;-0.21;100.00;100720.34;5054767;28;20216;-81
2022/02/12 06:34:34;;;;;;;18.42;8.15;;;;;;;-0.43;100.00;100727.31;5064929;28;20196;-81
2022/02/12 06:37:01;;;;;;;18.85;7.63;;;;;;;-0.55;100.00;100720.19;5051947;28;20276;-81
2022/02/12 06:39:28;;;;;;;13.52;6.80;;;;;;;-0.47;100.00;100720.25;5065659;28;20193;-81
2022/02/12 06:41:56;;;;;;;10.98;8.27;;;;;;;-0.39;100.00;100725.56;5054560;28;20201;-81
2022/02/12 06:44:23;;;;;;;16.65;6.90;;;;;;;-0.45;100.00;100727.31;5059477;28;20661;-81
2022/02/12 06:46:49;;;;;;;12.40;7.05;;;;;;;-0.55;100.00;100717.56;5055033;28;20674;-81
2022/02/12 06:49:16;;;;;;;13.57;7.50;;;;;;;-0.65;100.00;100724.56;5057994;28;20205;-81
2022/02/12 06:51:43;;;;;;;13.55;7.18;;;;;;;-0.65;100.00;100723.69;5066909;28;20188;-81
2022/02/12 06:54:09;;;;;;;11.75;7.15;;;;;;;-0.57;100.00;100718.44;5052337;28;20199;-81
2022/02/12 06:56:36;;;;;;;16.23;8.85;;;;;;;-0.40;100.00;100719.41;5050833;28;20627;-81
2022/02/12 06:59:04;;;;;;;13.90;7.40;;;;;;;-0.28;100.00;100716.78;5061282;28;20284;-81
2022/02/12 07:01:31;;;;;;;20.08;7.15;;;;;;;-0.25;100.00;100718.56;5055305;28;20529;-81
2022/02/12 07:03:58;;;;;;;14.90;6.57;;;;;;;-0.31;100.00;100718.56;5057963;28;20208;-81
2022/02/12 07:06:25;;;;;;;10.05;6.60;;;;;;;-0.38;100.00;100720.28;5050276;28;20297;-81
2022/02/12 07:08:51;;;;;;;12.32;7.50;;;;;;;-0.22;100.00;100727.41;5050177;28;20201;-80
2022/02/12 07:11:19;;;;;;;17.50;6.25;;;;;;;-0.41;100.00;100722.91;5057451;28;20201;-81
2022/02/12 07:13:45;;;;;;;8.50;5.70;;;;;;;-0.31;100.00;100716.78;5062737;28;20184;-82
2022/02/12 07:16:13;;;;;;;12.00;7.13;;;;;;;-0.37;100.00;100719.41;5052607;28;20204;-82
2022/02/12 07:18:40;;;;;;;11.75;5.85;;;;;;;-0.48;100.00;100729.94;5058075;28;20695;-80
2022/02/12 07:21:07;;;;;;;15.02;6.68;;;;;;;-0.36;100.00;100725.56;5048506;28;20671;-81
2022/02/12 07:23:33;;;;;;;18.25;6.70;;;;;;;-0.47;100.00;100729.06;5054174;28;20225;-80
2022/02/12 07:26:00;;;;;;;18.88;6.97;;;;;;;-0.51;100.00;100727.28;5060242;28;20291;-81
2022/02/12 07:28:29;;;;;;;14.35;6.53;;;;;;;-0.31;100.00;100722.09;5060888;28;20304;-81
2022/02/12 07:30:56;;;;;;;18.77;6.82;;;;;;;-0.31;100.00;100713.28;5064620;28;20555;-80
2022/02/12 07:33:26;;;;;;;19.65;6.15;;;;;;;-0.39;100.00;100718.50;5055306;28;20204;-81
2022/02/12 07:35:53;;;;;;;9.35;5.60;;;;;;;-0.18;100.00;100720.38;5062026;28;20251;-81
2022/02/12 07:38:20;;;;;;;14.45;6.20;;;;;;;0.06;100.00;100721.31;5058597;28;20186;-80
2022/02/12 07:40:47;;;;;;;16.05;7.13;;;;;;;-0.11;100.00;100721.28;5066201;28;20200;-80
2022/02/12 07:43:14;;;;;;;10.18;5.90;;;;;;;0.15;100.00;100724.00;5059506;28;20192;-81
2022/02/12 07:45:40;;;;;;;16.65;6.82;;;;;;;0.27;100.00;100726.69;5065439;28;20224;-80
2022/02/12 07:48:07;;;;;;;10.32;6.65;;;;;;;0.26;100.00;100732.84;5054695;28;20185;-80
2022/02/12 07:50:35;;;;;;;12.18;6.43;;;;;;;0.44;100.00;100720.50;5062298;28;20200;-80
2022/02/12 07:53:02;;;;;;;11.60;5.65;;;;;;;0.36;100.00;100734.66;5054994;28;20195;-80
2022/02/12 07:55:30;;;;;;;8.80;6.68;;;;;;;0.35;100.00;100729.34;5055636;28;20284;-80
2022/02/12 07:57:57;;;;;;;15.48;7.13;;;;;;;0.49;100.00;100724.91;5058402;28;20196;-81
2022/02/12 08:00:23;;;;;;;16.58;7.75;;;;;;;0.35;100.00;100721.38;5065086;28;20199;-80
2022/02/12 08:02:50;;;;;;;10.52;6.05;;;;;;;0.43;100.00;100722.28;5062893;28;20193;-80
2022/02/12 08:05:19;;;;;;;11.07;5.47;;;;;;;0.44;100.00;100721.41;5053748;28;20284;-80
2022/02/12 08:07:47;;;;;;;10.48;6.57;;;;;;;0.55;100.00;100722.28;5054026;28;20596;-80
2022/02/12 08:13:01;;;;;;;13.32;6.07;;;;;;;0.75;100.00;100732.03;5054724;28;20193;-81
2022/02/12 08:15:28;;;;;;;11.77;6.78;;;;;;;0.91;100.00;100727.59;5057198;28;20194;-81
2022/02/12 08:17:55;;;;;;;11.63;6.18;;;;;;;0.97;100.00;100723.19;5049481;28;20251;-81
2022/02/12 08:20:22;;;;;;;13.93;6.68;;;;;;;0.94;100.00;100717.84;5066483;28;20276;-81
2022/02/12 08:22:51;;;;;;;12.80;6.22;;;;;;;0.89;100.00;100724.94;5073431;28;20207;-82
2022/02/12 08:25:17;;;;;;;18.50;6.40;;;;;;;0.93;100.00;100723.19;5073579;28;20662;-82
2022/02/12 08:27:44;;;;;;;12.50;6.88;;;;;;;1.08;100.00;100728.44;5073022;28;20308;-82
2022/02/12 08:30:11;;;;;;;11.93;6.40;;;;;;;1.07;100.00;100725.81;5052971;28;20292;-81
2022/02/12 08:32:41;;;;;;;15.52;6.10;;;;;;;1.16;100.00;100721.38;5053487;28;20272;-81
2022/02/12 08:35:10;;;;;;;9.55;6.57;;;;;;;1.40;100.00;100723.09;5052910;28;20193;-81
2022/02/12 08:37:38;;;;;;;13.18;6.30;;;;;;;1.36;100.00;100720.47;5053542;28;20211;-81
2022/02/12 08:40:11;;;;;;;19.25;7.20;;;;;;;1.62;100.00;100728.31;5053829;28;20646;-81
2022/02/12 08:42:39;;;;;;;11.07;5.97;;;;;;;1.52;100.00;100727.47;5053496;28;20189;-81
2022/02/12 08:45:07;;;;;;;17.45;7.47;;;;;;;1.73;100.00;100722.97;5053515;28;20638;-82
2022/02/12 08:47:34;;;;;;;15.73;7.35;;;;;;;1.87;100.00;100716.69;5052981;28;20310;-82
2022/02/12 08:50:00;;;;;;;16.30;6.35;;;;;;;1.90;100.00;100725.53;5052109;28;20225;-82
2022/02/12 08:52:29;;;;;;;28.98;9.93;;;;;;;1.94;100.00;100730.84;5052977;28;20225;-81
2022/02/12 08:54:56;;;;;;;12.82;6.63;;;;;;;1.93;100.00;100730.88;5052713;28;20197;-80
2022/02/12 08:57:24;;;;;;;13.15;6.75;;;;;;;1.95;100.00;100722.00;5053552;28;20205;-81
2022/02/12 08:59:50;;;;;;;14.10;7.18;;;;;;;1.86;100.00;100719.38;5053093;28;20205;-81
2022/02/12 09:02:17;;;;;;;14.95;8.15;;;;;;;2.05;100.00;100723.69;5053138;28;20193;-80
2022/02/12 09:04:43;;;;;;;14.52;7.50;;;;;;;2.17;100.00;100732.50;5053235;28;20205;-81
2022/02/12 09:07:10;;;;;;;15.23;7.93;;;;;;;2.31;100.00;100728.00;5052753;28;20317;-81
2022/02/12 09:09:38;;;;;;;15.05;7.28;;;;;;;2.37;100.00;100719.09;5053100;28;20635;-81
2022/02/12 09:12:05;;;;;;;17.60;7.65;;;;;;;2.42;100.00;100718.19;5052717;28;20280;-81
2022/02/12 09:14:33;;;;;;;11.15;6.60;;;;;;;2.44;100.00;100708.41;5053105;28;20552;-82
2022/02/12 09:17:00;;;;;;;13.30;7.40;;;;;;;2.62;100.00;100707.41;5053634;28;20185;-81
2022/02/12 09:19:26;;;;;;;13.18;5.80;;;;;;;2.81;100.00;100710.78;5052762;28;20197;-82
2022/02/12 09:21:53;;;;;;;14.50;9.70;;;;;;;3.03;99.31;100698.16;5053283;28;20212;-82
2022/02/12 09:24:20;;;;;;;16.20;7.75;;;;;;;3.38;97.33;100698.69;5053081;28;20748;-82
2022/02/12 09:26:46;;;;;;;16.85;7.18;;;;;;;3.59;94.96;100694.88;5052448;28;21057;-82
2022/02/12 09:29:13;;;;;;;13.20;8.10;;;;;;;3.55;95.36;100688.75;5053297;28;20284;-81
2022/02/12 09:31:41;;;;;;;11.57;7.05;;;;;;;3.69;94.58;100685.91;5053547;28;20624;-82
2022/02/12 09:34:08;;;;;;;11.25;6.20;;;;;;;3.87;93.07;100685.66;5052617;28;20194;-82
2022/02/12 09:36:37;;;;;;;14.70;8.40;;;;;;;3.93;93.96;100687.34;5052873;28;20200;-82
2022/02/12 09:39:04;;;;;;;12.75;7.05;;;;;;;3.84;93.42;100677.69;5052869;28;20197;-82
2022/02/12 09:41:31;;;;;;;11.90;7.65;;;;;;;3.90;92.81;100674.94;5052334;28;20273;-82
2022/02/12 09:43:58;;;;;;;14.43;7.07;;;;;;;4.03;92.29;100670.34;5052878;28;20287;-82
2022/02/12 09:47:04;;;;;;;14.10;5.85;;;;;;;4.16;89.53;100669.25;5052574;28;20308;-82
2022/02/12 09:49:34;;;;;;;11.90;6.88;;;;;;;4.28;88.84;100670.84;5050912;28;20279;-82
2022/02/12 09:52:02;;;;;;;15.02;6.45;;;;;;;4.55;88.00;100671.34;5052620;28;20546;-82
2022/02/12 09:54:30;;;;;;;15.60;7.60;;;;;;;4.67;88.57;100672.91;5052774;28;20196;-82
2022/02/12 09:57:00;;;;;;;13.10;6.80;;;;;;;4.94;84.02;100658.22;5052401;28;20193;-82
2022/02/12 09:59:26;;;;;;;13.40;8.75;;;;;;;5.10;82.82;100651.66;5033067;28;20238;-82
2022/02/12 10:01:53;;;;;;;16.70;6.43;;;;;;;5.11;82.03;100656.13;5035929;28;20640;-82
2022/02/12 10:04:21;;;;;;;14.05;6.28;;;;;;;5.03;82.84;100649.16;5053770;28;20264;-81
2022/02/12 10:06:49;;;;;;;11.65;6.13;;;;;;;4.99;81.30;100642.97;5051687;28;20304;-82
2022/02/12 10:09:17;;;;;;;9.52;6.15;;;;;;;5.11;80.72;100647.19;5051734;28;20259;-80
2022/02/12 10:11:47;;;;;;;13.73;6.75;;;;;;;5.09;81.11;100657.03;5051594;28;20567;-81
2022/02/12 10:14:15;;;;;;;12.02;6.55;;;;;;;5.23;79.77;100652.31;5051141;28;20200;-82
2022/02/12 10:16:56;;;;;;;11.68;5.22;;;;;;;5.37;78.40;100647.56;5052087;28;20192;-82
2022/02/12 10:19:32;;;;;;;13.30;6.63;;;;;;;5.36;78.91;100636.91;5052183;28;20196;-80
2022/02/12 10:22:15;;;;;;;11.32;6.55;;;;;;;5.26;78.57;100635.34;5052044;28;20639;-80
2022/02/12 10:24:52;;;;;;;10.10;6.20;;;;;;;5.52;78.17;100632.16;5050823;28;20225;-81
2022/02/12 10:27:22;;;;;;;19.35;6.13;;;;;;;5.39;79.37;100634.19;5051535;28;20262;-81
2022/02/12 10:29:49;;;;;;;17.42;7.00;;;;;;;5.52;78.32;100629.50;5051210;28;20226;-80
2022/02/12 10:32:17;;;;;;;12.93;6.88;;;;;;;5.46;77.25;100635.84;5051446;28;20618;-81
2022/02/12 10:34:51;;;;;;;11.80;6.70;;;;;;;5.61;76.71;100631.97;5051750;28;20220;-80
2022/02/12 10:37:26;;;;;;;11.23;6.40;;;;;;;5.95;75.25;100626.78;5052394;28;20185;-80
2022/02/12 10:39:56;;;;;;;15.93;7.97;;;;;;;5.99;74.24;100627.59;5052455;28;20214;-82
2022/02/12 10:42:26;;;;;;;12.07;6.32;;;;;;;5.92;73.90;100621.47;5050053;28;20205;-86
2022/02/12 10:44:54;;;;;;;14.45;6.97;;;;;;;5.80;74.33;100619.06;5052779;28;20284;-81
2022/02/12 10:47:23;;;;;;;13.95;6.32;;;;;;;5.67;75.82;100622.94;5054329;28;20217;-82
2022/02/12 10:49:51;;;;;;;15.02;6.05;;;;;;;5.84;74.23;100612.75;5057477;28;20627;-79
2022/02/12 10:52:22;;;;;;;16.80;7.53;;;;;;;6.08;73.42;100611.31;5054998;28;20211;-80
2022/02/12 10:54:50;;;;;;;11.60;6.35;;;;;;;6.16;72.64;100603.13;5055326;28;20635;-80
2022/02/12 10:57:19;;;;;;;14.23;7.65;;;;;;;6.50;68.60;100597.84;5055119;28;20699;-80
2022/02/12 10:59:46;;;;;;;13.07;6.60;;;;;;;6.59;68.17;100586.00;5055343;28;20641;-80
2022/02/12 11:02:15;;;;;;;13.93;7.85;;;;;;;6.77;67.04;100579.31;5055184;28;20296;-79
2022/02/12 11:04:43;;;;;;;10.18;5.47;;;;;;;6.71;66.40;100577.66;5054649;28;20181;-79
2022/02/12 11:07:15;;;;;;;11.93;6.95;;;;;;;6.90;66.58;100572.69;5054085;28;20312;-81
2022/02/12 11:09:45;;;;;;;12.90;5.90;;;;;;;7.04;65.30;100573.19;5054655;28;20274;-80
2022/02/12 11:12:13;;;;;;;13.48;6.72;;;;;;;6.83;64.52;100563.94;5054791;28;20197;-79
2022/02/12 11:14:40;;;;;;;12.30;6.35;;;;;;;6.98;63.59;100568.00;5054702;28;20232;-79
2022/02/12 11:17:10;;;;;;;10.10;6.20;;;;;;;7.18;62.40;100554.03;5054664;28;20718;-79
2022/02/12 11:19:37;;;;;;;12.90;6.22;;;;;;;7.36;61.35;100551.75;5054761;28;20608;-80
2022/02/12 11:22:05;;;;;;;12.63;5.20;;;;;;;7.52;60.13;100542.31;5054516;28;20232;-79
2022/02/12 11:24:36;;;;;;;8.07;5.32;;;;;;;7.39;60.22;100538.25;5053961;28;20224;-79
2022/02/12 11:27:17;;;;;;;10.13;5.15;;;;;;;7.43;60.21;100527.38;5054540;28;20213;-80
2022/02/12 11:29:45;;;;;;;11.60;5.07;;;;;;;7.50;59.07;100520.03;5054240;28;20181;-80
2022/02/12 11:32:14;;;;;;;12.77;5.05;;;;;;;7.29;58.14;100519.78;5054570;28;20212;-79
2022/02/12 11:34:44;;;;;;;6.88;5.15;;;;;;;7.08;60.04;100515.06;5054599;28;20646;-79
2022/02/12 11:37:15;;;;;;;6.20;4.20;;;;;;;6.87;60.51;100512.09;5054084;28;20193;-80
2022/02/12 11:39:42;;;;;;;9.75;5.15;;;;;;;7.12;60.55;100508.66;5054287;28;20204;-79
2022/02/12 11:42:12;;;;;;;8.10;5.20;;;;;;;6.94;59.04;100502.06;5053862;28;20296;-79